Latest Weather Observations for Yanakie

IDV60801

Issued at 7:12 am EDT Friday 21 January 2022 (issued every 10 minutes, with the page automatically refreshed every 10 minutes)

About weather observations | Map of weather stations | Latest weather observations for VIC | Other Formats
Station Details ID: 085301 Name: YANAKIE Lat: -38.81 Lon: 146.19 Height: 13.3 m
Data from the previous 72 hours. | See also: Recent months at Yanakie
Date/Time
EDT
Temp
°C
App
Temp
°C
Dew
Point
°C
Rel
Hum
%
Delta-T
°C
Wind Press
QNH
hPa
Press
MSL
hPa
Rain since
9am
mm
Dir  Spd
km/h
Gust
km/h
Spd
kts
Gust
kts
21/07:00am 16.9 16.0 14.9 88 1.1 ENE 13 22 7 12 1028.6 1028.6 0.0
21/06:30am 16.6 15.7 14.8 89 1.0 NE 13 22 7 12 1028.2 1028.2 0.0
21/06:00am 16.6 14.4 14.4 87 1.3 ENE 19 32 10 17 1027.7 1027.7 0.0
21/05:30am 16.8 14.0 14.4 86 1.4 ENE 22 35 12 19 1027.4 1027.4 0.0
21/05:00am 17.0 13.9 14.5 85 1.4 ENE 24 41 13 22 1027.5 1027.5 0.0
21/04:30am 17.0 14.3 14.6 86 1.4 ENE 22 37 12 20 1027.5 1027.5 0.0
21/04:00am 17.2 13.3 14.5 84 1.5 ENE 28 41 15 22 1027.3 1027.3 0.0
21/03:30am 16.9 13.8 14.5 86 1.4 ENE 24 39 13 21 1027.7 1027.7 0.0
21/03:00am 16.8 14.4 14.4 86 1.4 ENE 20 32 11 17 1027.8 1027.8 0.0
21/02:30am 16.7 13.5 14.3 86 1.4 ENE 24 35 13 19 1027.8 1027.8 0.0
21/02:00am 16.9 12.9 14.2 84 1.5 ENE 28 39 15 21 1028.1 1028.1 0.0
21/01:30am 16.9 13.7 14.2 84 1.5 ENE 24 39 13 21 1028.2 1028.2 0.0
21/01:00am 17.0 13.4 14.1 83 1.6 ENE 26 39 14 21 1028.2 1028.2 0.0
21/12:30am 17.1 13.4 14.0 82 1.8 ENE 26 41 14 22 1028.6 1028.6 0.0
21/12:00am 17.2 13.4 13.7 80 2.0 ENE 26 41 14 22 1028.6 1028.6 0.0
 
Date/Time
EDT
Temp
°C
App
Temp
°C
Dew
Point
°C
Rel
Hum
%
Delta-T
°C
Wind Press
QNH
hPa
Press
MSL
hPa
Rain since
9am
mm
Dir  Spd
km/h
Gust
km/h
Spd
kts
Gust
kts
20/11:30pm 17.3 13.3 14.0 81 1.9 ENE 28 43 15 23 1028.9 1028.9 0.0
20/11:00pm 17.4 12.9 13.9 80 2.0 ENE 30 41 16 22 1028.9 1028.9 0.0
20/10:30pm 17.4 12.9 13.7 79 2.1 ENE 30 41 16 22 1028.8 1028.8 0.0
20/10:00pm 17.6 13.3 13.3 76 2.4 ENE 28 41 15 22 1029.1 1029.1 0.0
20/09:40pm 17.6 13.3 13.1 75 2.5 ENE 28 46 15 25 1029.1 1029.1 0.0
20/09:30pm 17.6 12.8 12.9 74 2.6 ENE 30 43 16 23 1029.0 1029.0 0.0
20/09:00pm 17.9 13.5 13.0 73 2.7 ENE 28 48 15 26 1028.9 1028.9 0.0
20/08:59pm 17.9 13.5 13.0 73 2.7 ENE 28 48 15 26 1028.9 1028.9 0.0
20/08:30pm 18.1 13.4 13.2 73 2.8 ENE 30 46 16 25 1028.4 1028.4 0.0
20/08:00pm 18.6 14.8 13.5 72 2.9 ENE 26 43 14 23 1028.3 1028.3 0.0
20/07:33pm 19.1 14.8 13.3 69 3.3 E 28 46 15 25 1028.1 1028.1 0.0
20/07:30pm 19.1 15.3 13.5 70 3.2 E 26 43 14 23 1028.1 1028.1 0.0
20/07:00pm 19.6 15.7 13.3 67 3.6 E 26 46 14 25 1027.9 1027.9 0.0
20/06:41pm 19.9 15.6 13.1 65 3.9 E 28 48 15 26 1027.9 1027.9 0.0
20/06:30pm 19.9 15.4 12.7 63 4.1 E 28 44 15 24 1027.9 1027.9 0.0
20/06:02pm 20.1 16.0 13.8 67 3.6 E 28 46 15 25 1027.9 1027.9 0.0
20/06:00pm 20.2 16.5 13.9 67 3.6 E 26 44 14 24 1027.9 1027.9 0.0
20/05:41pm 19.5 15.2 13.2 67 3.6 E 28 46 15 25 1027.9 1027.9 0.0
20/05:30pm 20.5 15.8 13.2 63 4.2 E 30 43 16 23 1028.0 1028.0 0.0
20/05:20pm 20.7 16.4 13.2 62 4.3 E 28 50 15 27 1028.0 1028.0 0.0
20/05:00pm 20.6 16.4 13.6 64 4.0 E 28 44 15 24 1028.2 1028.2 0.0
20/04:48pm 21.0 16.5 12.7 59 4.7 E 28 50 15 27 1028.3 1028.3 0.0
20/04:30pm 21.3 16.9 13.0 59 4.7 E 28 44 15 24 1028.7 1028.7 0.0
20/04:01pm 21.5 17.2 13.2 59 4.8 E 28 46 15 25 1028.9 1028.9 0.0
20/04:00pm 21.5 17.2 13.2 59 4.7 E 28 44 15 24 1028.8 1028.8 0.0
20/03:31pm 21.3 16.8 12.7 58 4.9 E 28 46 15 25 1029.3 1029.3 0.0
20/03:30pm 21.4 17.2 12.5 57 5.0 E 26 44 14 24 1029.3 1029.3 0.0
20/03:04pm 21.7 17.2 12.5 56 5.2 E 28 48 15 26 1029.3 1029.3 0.0
20/03:00pm 21.7 16.8 12.5 56 5.2 E 30 48 16 26 1029.3 1029.3 0.0
20/02:34pm 21.3 16.4 12.7 58 4.9 E 30 50 16 27 1029.4 1029.4 0.0
20/02:30pm 21.8 17.1 13.2 58 4.9 E 30 44 16 24 1029.5 1029.5 0.0
20/02:00pm 21.7 17.0 13.1 58 4.9 E 30 50 16 27 1029.6 1029.6 0.0
20/01:38pm 21.3 16.7 12.4 57 5.0 E 28 46 15 25 1029.7 1029.7 0.0
20/01:30pm 21.9 18.0 13.3 58 4.9 E 26 44 14 24 1029.8 1029.8 0.0
20/01:00pm 21.5 17.0 12.6 57 5.0 E 28 48 15 26 1029.9 1029.9 0.0
20/12:30pm 21.3 16.2 13.2 60 4.6 E 32 50 17 27 1029.8 1029.8 0.0
20/12:15pm 21.1 16.7 12.8 59 4.7 E 28 46 15 25 1030.0 1030.0 0.0
20/12:00pm 21.2 16.8 12.9 59 4.7 E 28 43 15 23 1030.0 1030.0 0.0
20/11:33am 21.3 16.5 13.0 59 4.7 E 30 48 16 26 1030.1 1030.1 0.0
20/11:30am 21.2 16.0 12.9 59 4.7 E 32 48 17 26 1030.1 1030.1 0.0
20/11:09am 20.6 15.9 13.1 62 4.3 E 30 50 16 27 1030.2 1030.2 0.0
20/11:00am 20.4 15.7 13.1 63 4.1 E 30 48 16 26 1030.2 1030.2 0.0
20/10:47am 20.6 16.3 13.3 63 4.2 E 28 52 15 28 1030.2 1030.2 0.0
20/10:30am 20.5 16.6 13.2 63 4.2 E 26 44 14 24 1030.3 1030.3 0.0
20/10:05am 20.1 15.7 12.8 63 4.1 E 28 46 15 25 1030.2 1030.2 0.0
20/10:00am 20.0 16.1 13.2 65 3.8 E 26 41 14 22 1030.2 1030.2 0.0
20/09:30am 20.1 16.6 13.3 65 3.9 E 24 41 13 22 1030.2 1030.2 0.0
20/09:00am 19.7 16.3 13.6 68 3.5 E 24 44 13 24 1029.9 1029.9 0.0
20/08:30am 18.8 15.3 13.4 71 3.1 E 24 39 13 21 1029.7 1029.7 0.0
20/08:00am 18.5 14.9 13.1 71 3.0 E 24 43 13 23 1029.6 1029.6 0.0
20/07:30am 17.9 14.2 12.8 72 2.9 E 24 37 13 20 1029.5 1029.5 0.0
20/07:00am 17.2 13.9 12.7 75 2.5 E 22 32 12 17 1029.7 1029.7 0.0
20/06:30am 17.0 13.7 11.7 71 2.9 E 20 33 11 18 1029.3 1029.3 0.0
20/06:00am 17.0 13.6 10.6 66 3.4 E 19 32 10 17 1029.2 1029.2 0.0
20/05:30am 17.2 13.9 11.0 67 3.3 E 19 32 10 17 1028.9 1028.9 0.0
20/05:00am 17.1 13.7 11.2 68 3.2 E 20 35 11 19 1028.8 1028.8 0.0
20/04:30am 17.2 13.7 10.8 66 3.4 E 20 37 11 20 1028.6 1028.6 0.0
20/04:00am 16.9 13.5 10.5 66 3.4 E 19 30 10 16 1028.6 1028.6 0.0
20/03:30am 17.0 13.6 11.1 68 3.2 E 20 37 11 20 1028.8 1028.8 0.0
20/03:00am 17.1 13.9 11.4 69 3.1 E 19 32 10 17 1028.9 1028.9 0.0
20/02:30am 17.1 13.9 11.4 69 3.1 E 19 33 10 18 1029.2 1029.2 0.0
20/02:00am 17.3 13.7 10.7 65 3.5 E 20 35 11 19 1029.5 1029.5 0.0
20/01:30am 17.1 13.6 10.9 67 3.3 E 20 35 11 19 1029.5 1029.5 0.0
20/01:00am 17.0 13.9 11.5 70 3.0 E 19 32 10 17 1029.7 1029.7 0.0
20/12:30am 17.4 14.0 11.4 68 3.3 E 20 35 11 19 1029.6 1029.6 0.0
20/12:00am 17.6 14.4 11.9 69 3.1 E 20 35 11 19 1029.6 1029.6 0.0
 
Date/Time
EDT
Temp
°C
App
Temp
°C
Dew
Point
°C
Rel
Hum
%
Delta-T
°C
Wind Press
QNH
hPa
Press
MSL
hPa
Rain since
9am
mm
Dir  Spd
km/h
Gust
km/h
Spd
kts
Gust
kts
19/11:30pm 17.7 14.6 11.7 68 3.3 E 19 30 10 16 1029.5 1029.5 0.0
19/11:00pm 17.6 14.2 11.4 67 3.3 E 20 41 11 22 1029.4 1029.4 0.0
19/10:30pm 17.6 14.3 11.6 68 3.3 E 20 35 11 19 1029.1 1029.1 0.0
19/10:00pm 17.3 14.2 12.2 72 2.8 E 20 35 11 19 1028.8 1028.8 0.0
19/09:30pm 17.2 13.8 12.5 74 2.6 E 22 41 12 22 1028.4 1028.4 0.0
19/09:00pm 17.4 13.6 12.5 73 2.7 E 24 41 13 22 1028.1 1028.1 0.0
19/08:30pm 17.5 14.6 13.0 75 2.5 E 20 32 11 17 1027.8 1027.8 0.0
19/08:00pm 18.3 14.8 13.4 73 2.8 E 24 39 13 21 1027.7 1027.7 0.0
19/07:30pm 18.6 15.0 13.2 71 3.1 E 24 37 13 20 1027.5 1027.5 0.0
19/07:15pm 18.6 14.2 13.0 70 3.2 E 28 46 15 25 1027.2 1027.2 0.0
19/07:00pm 18.7 14.7 12.9 69 3.2 E 26 41 14 22 1027.0 1027.0 0.0
19/06:30pm 19.0 14.5 12.5 66 3.6 E 28 44 15 24 1026.5 1026.5 0.0
19/06:08pm 19.7 14.2 12.0 61 4.3 E 32 52 17 28 1026.4 1026.4 0.0
19/06:00pm 19.6 14.2 12.8 65 3.8 E 33 48 18 26 1026.3 1026.3 0.0
19/05:30pm 19.8 15.0 12.8 64 4.0 E 30 50 16 27 1026.4 1026.4 0.0
19/05:00pm 20.6 15.9 13.3 63 4.2 E 30 52 16 28 1026.6 1026.6 0.0
19/04:36pm 20.7 16.0 11.9 57 4.9 E 28 46 15 25 1026.6 1026.6 0.0
19/04:30pm 20.8 15.6 11.7 56 5.1 E 30 44 16 24 1026.5 1026.5 0.0
19/04:00pm 20.9 16.2 12.1 57 4.9 E 28 48 15 26 1026.7 1026.7 0.0
19/03:53pm 21.1 16.3 11.7 55 5.2 E 28 48 15 26 1026.7 1026.7 0.0
19/03:30pm 20.6 16.2 11.8 57 4.9 E 26 43 14 23 1026.8 1026.8 0.0
19/03:00pm 20.3 16.1 12.5 61 4.4 E 26 41 14 22 1026.9 1026.9 0.0
19/02:38pm 20.8 16.1 12.0 57 4.9 E 28 46 15 25 1027.0 1027.0 0.0
19/02:30pm 21.0 15.8 11.6 55 5.2 E 30 48 16 26 1027.0 1027.0 0.0
19/02:26pm 20.9 16.2 12.1 57 4.9 E 28 48 15 26 1026.9 1026.9 0.0
19/02:00pm 21.2 16.9 13.1 60 4.6 E 28 43 15 23 1026.6 1026.6 0.0
19/01:41pm 21.4 17.0 12.8 58 4.9 E 28 46 15 25 1026.5 1026.5 0.0
19/01:30pm 21.1 16.7 12.8 59 4.7 E 28 44 15 24 1026.5 1026.5 0.0
19/01:00pm 21.1 16.2 12.5 58 4.8 E 30 43 16 23 1026.5 1026.5 0.0
19/12:30pm 21.4 17.2 12.5 57 5.0 E 26 39 14 21 1026.6 1026.6 0.0
19/12:00pm 21.7 17.8 13.3 59 4.8 E 26 41 14 22 1026.5 1026.5 0.0
19/11:30am 20.8 16.4 11.7 56 5.1 E 26 41 14 22 1026.3 1026.3 0.0
19/11:00am 20.8 16.4 13.0 61 4.4 E 28 43 15 23 1026.1 1026.1 0.0
19/10:30am 20.3 16.0 13.3 64 4.0 E 28 44 15 24 1025.9 1025.9 0.0
19/10:17am 19.9 15.8 13.8 68 3.5 E 28 48 15 26 1025.9 1025.9 0.0
19/10:00am 19.0 15.8 14.3 74 2.7 E 24 39 13 21 1025.7 1025.7 0.0
19/09:30am 18.7 14.9 13.6 72 2.9 E 26 44 14 24 1025.5 1025.5 0.0
19/09:00am 19.7 16.4 13.9 69 3.3 E 24 39 13 21 1025.0 1025.0 0.0
19/08:30am 19.5 16.4 13.4 68 3.5 E 22 39 12 21 1024.7 1024.6 0.0
19/08:00am 19.1 16.0 13.5 70 3.2 E 22 37 12 20 1023.9 1023.8 0.0
19/07:30am 18.8 16.1 13.6 72 3.0 E 20 35 11 19 1023.3 1023.2 0.0
19/07:00am 18.4 15.5 13.9 75 2.6 E 22 35 12 19 1022.8 1022.7 0.0
19/06:30am 17.8 15.2 13.7 77 2.3 E 20 33 11 18 1022.4 1022.3 0.0
19/06:00am 18.0 15.6 14.3 79 2.1 E 20 32 11 17 1022.0 1021.9 0.0
19/05:30am 18.0 15.7 14.1 78 2.2 E 19 30 10 16 1021.5 1021.4 0.0
19/05:00am 18.1 15.3 14.4 79 2.1 E 22 37 12 20 1021.1 1021.0 0.0
19/04:30am 17.8 15.4 14.3 80 2.0 E 20 33 11 18 1020.9 1020.8 0.0
19/04:00am 17.7 15.3 14.4 81 1.9 ESE 20 32 11 17 1020.6 1020.5 0.0
19/03:30am 17.8 15.5 14.7 82 1.8 ESE 20 33 11 18 1020.2 1020.1 0.0
19/03:00am 17.9 15.3 14.8 82 1.8 E 22 35 12 19 1020.0 1019.9 0.0
19/02:30am 17.7 15.5 15.0 84 1.6 E 20 33 11 18 1019.9 1019.8 0.0
19/02:00am 17.8 16.2 15.1 84 1.6 E 17 26 9 14 1020.0 1019.9 0.0
19/01:30am 17.9 15.8 14.8 82 1.8 ESE 19 33 10 18 1020.0 1019.9 0.0
19/01:00am 18.1 16.3 15.4 84 1.6 ESE 19 26 10 14 1020.0 1019.9 0.0
19/12:30am 18.1 17.3 15.0 82 1.8 E 13 24 7 13 1019.9 1019.8 0.0
19/12:00am 17.4 17.2 14.7 84 1.6 ESE 9 15 5 8 1019.8 1019.7 0.0
 
Date/Time
EDT
Temp
°C
App
Temp
°C
Dew
Point
°C
Rel
Hum
%
Delta-T
°C
Wind Press
QNH
hPa
Press
MSL
hPa
Rain since
9am
mm
Dir  Spd
km/h
Gust
km/h
Spd
kts
Gust
kts
18/11:30pm 15.9 16.1 14.3 90 0.9 SE 6 11 3 6 1019.8 1019.7 0.0
18/11:00pm 14.7 14.9 12.9 89 1.0 SE 4 6 2 3 1019.8 1019.7 0.0
18/10:30pm 14.1 13.8 12.8 92 0.7 SE 6 6 3 3 1019.6 1019.5 0.0
18/10:00pm 13.0 13.4 11.4 90 0.8 CALM 0 0 0 0 1019.5 1019.4 0.0
18/09:30pm 13.5 14.0 11.6 88 1.0 CALM 0 0 0 0 1019.2 1019.1 0.0
18/09:00pm 14.5 14.3 11.8 84 1.4 SSW 4 4 2 2 1018.7 1018.6 0.0
18/08:30pm 16.0 15.7 12.6 80 1.9 SW 6 7 3 4 1018.3 1018.2 0.0
18/08:00pm 17.5 16.6 12.6 73 2.7 SW 9 13 5 7 1017.8 1017.7 0.0
18/07:30pm 18.0 16.0 12.7 71 3.0 SW 15 20 8 11 1017.3 1017.2 0.0
18/07:00pm 18.5 16.1 12.7 69 3.2 SW 17 24 9 13 1017.3 1017.2 0.0
18/06:30pm 18.8 15.8 12.1 65 3.7 SW 19 28 10 15 1017.0 1016.9 0.0
18/06:00pm 19.4 16.5 12.2 63 4.0 SW 19 26 10 14 1016.9 1016.8 0.0
18/05:30pm 19.6 16.1 12.1 62 4.2 SW 22 32 12 17 1016.9 1016.8 0.0
18/05:00pm 19.7 16.0 11.5 59 4.5 SSW 22 35 12 19 1017.1 1017.0 0.0
18/04:30pm 19.8 16.3 12.1 61 4.3 SW 22 30 12 16 1017.0 1016.9 0.0
18/04:00pm 19.6 16.2 12.4 63 4.0 SW 22 30 12 16 1017.0 1016.9 0.0
18/03:30pm 20.1 16.7 12.6 62 4.2 SW 22 32 12 17 1017.2 1017.1 0.0
18/03:00pm 20.0 16.7 12.7 63 4.1 SW 22 32 12 17 1017.0 1016.9 0.0
18/02:30pm 19.5 16.1 12.5 64 3.9 SW 22 30 12 16 1017.1 1017.0 0.0
18/02:00pm 20.5 17.3 13.0 62 4.3 SW 22 30 12 16 1017.1 1017.0 0.0
18/01:30pm 19.6 16.2 12.6 64 3.9 SW 22 32 12 17 1017.1 1017.0 0.0
18/01:00pm 19.4 16.8 13.1 67 3.6 SW 19 30 10 16 1017.1 1017.0 0.0
18/12:30pm 18.9 15.9 12.6 67 3.5 SW 20 28 11 15 1017.0 1016.9 0.0
18/12:00pm 19.1 15.9 11.2 60 4.3 SW 19 28 10 15 1017.0 1016.9 0.0
18/11:30am 19.4 16.0 11.4 60 4.4 SW 20 26 11 14 1017.2 1017.1 0.0
18/11:00am 18.6 15.3 11.7 64 3.8 SW 20 26 11 14 1017.1 1017.0 0.0
18/10:30am 18.7 15.1 12.9 69 3.3 SW 24 32 13 17 1016.8 1016.7 0.0
18/10:00am 19.3 15.6 10.0 55 5.0 SW 20 30 11 16 1016.6 1016.5 0.0
18/09:30am 18.1 14.8 9.7 58 4.4 SW 17 24 9 13 1016.5 1016.4 0.0
18/09:00am 17.4 14.1 9.6 60 4.1 SW 17 24 9 13 1016.4 1016.3 0.0
18/08:30am 17.0 14.7 10.4 65 3.5 SW 13 19 7 10 1016.2 1016.1 0.0
18/08:00am 16.6 14.1 10.9 69 3.0 SW 15 22 8 12 1016.0 1015.9 0.0
18/07:30am 16.3 13.7 10.8 70 2.9 SW 15 20 8 11 1015.6 1015.5 0.0

Other formats

Comma delimited format used in spreadsheet applications
http://www.bom.gov.au/fwo/IDV60801/IDV60801.94911.axf

JavaScript Object Notation format (JSON) in row-major order
http://www.bom.gov.au/fwo/IDV60801/IDV60801.94911.json

Data quality

Most of these data are generated automatically and are frequently updated. Quality checks on data are not normally performed. It is possible for incorrect values to appear. Refer to information at About Latest Weather Observations and please check the disclaimer before using these data.